Bookmark and Share
Track history (hours):
 

Drifting buoy 52609

Last reported at 2013-Aug-24 13:54 UTC. Time now 2014-Apr-24 01:59 UTC.
Position N 23°03' E 127°07'.
Warning: this ship's position is months out of date.

NotesDate/timePositionNaut miles runAvg speedWind from/ knotsBaromVisibWave heightAir tempDewpointWater temp
2013-Aug-24 13:54N 23°03' E 127°07'0 0.0
2013-Aug-24 13:09N 23°03' E 127°07'0 0.0
2013-Aug-24 12:41N 23°03' E 127°07'0 0.7
2013-Aug-24 12:36N 23°03' E 127°08'3 8.4
2013-Aug-24 12:17N 23°01' E 127°06'0 0.0
2013-Aug-24 11:30N 23°01' E 127°06'0 0.0
2013-Aug-24 11:00N 23°01' E 127°06'0 0.0 29.1
2013-Aug-24 09:45N 23°01' E 127°06'1 1.1 29.8
2013-Aug-24 09:06N 22°60' E 127°06'180.9 30.1
2013-Aug-24 09:05N 22°59' E 127°06'1 0.7 30.1
2013-Aug-24 08:09N 22°58' E 127°06'1 9.4 29.9
2013-Aug-24 08:05N 22°59' E 127°06'0 0.0 29.9
2013-Aug-24 07:39N 22°59' E 127°06'1 2.3 30.2
2013-Aug-24 07:25N 22°58' E 127°06'1 1.6 30.5
2013-Aug-24 06:42N 22°58' E 127°07'   30.4
2013-Aug-19 20:12N 22°36' E 126°58'0 0.0
2013-Aug-19 11:58N 22°36' E 126°58'1 0.2
2013-Aug-19 09:06N 22°36' E 126°59'0 0.6
2013-Aug-19 08:27N 22°36' E 126°58'0 0.0
2013-Aug-19 07:50N 22°36' E 126°58'0 0.2
2013-Aug-19 06:43N 22°36' E 126°58'0 0.0
2013-Aug-19 05:58N 22°36' E 126°58'8 0.9
2013-Aug-18 20:43N 22°28' E 127°02'0 0.0
2013-Aug-18 16:54N 22°28' E 127°02'0 0.0
2013-Aug-18 14:22N 22°28' E 127°02'0 0.0
2013-Aug-18 13:52N 22°28' E 127°02'2 1.4
2013-Aug-18 12:39N 22°29' E 127°03'0 0.0
2013-Aug-18 12:15N 22°29' E 127°03'0 1.3 29.7
2013-Aug-18 12:09N 22°29' E 127°03'0 0.5
2013-Aug-18 11:53N 22°29' E 127°03'0 0.0
2013-Aug-18 11:14N 22°29' E 127°03'1 0.5
2013-Aug-18 09:51N 22°29' E 127°04'1 0.8
2013-Aug-18 08:03N 22°30' E 127°05'0 0.0 29.8
2013-Aug-18 07:05N 22°30' E 127°05'0 0.3
2013-Aug-18 06:30N 22°30' E 127°05'0 0.0 29.9
2013-Aug-18 06:10N 22°30' E 127°05'1 0.7 29.9
2013-Aug-18 05:20N 22°30' E 127°05'1 1.3 29.9
2013-Aug-18 04:21N 22°30' E 127°03'0 0.1 29.9
2013-Aug-18 02:36N 22°30' E 127°03'1 1.1 29.9
2013-Aug-18 01:27N 22°30' E 127°02'0 0.0
2013-Aug-18 00:57N 22°30' E 127°02'0 3.4
2013-Aug-18 00:51N 22°29' E 127°02'0 0.0 29.8
2013-Aug-17 23:48N 22°29' E 127°02'2 3.0
2013-Aug-17 23:12N 22°27' E 127°02'0 1.4 29.8
2013-Aug-17 22:52N 22°28' E 127°03'0 0.3
2013-Aug-17 21:16N 22°27' E 127°02'0 1.2 29.8
2013-Aug-17 21:12N 22°27' E 127°02'1 4.7
2013-Aug-17 20:55N 22°26' E 127°03'0 0.0
2013-Aug-17 19:46N 22°26' E 127°03'1 3.6 29.8
2013-Aug-17 19:34N 22°25' E 127°03'0 0.0 29.8
2013-Aug-17 19:26N 22°25' E 127°03'1 1.7 29.8
2013-Aug-17 18:48N 22°25' E 127°04'0 0.1 29.8
2013-Aug-17 18:07N 22°25' E 127°04'111.4 29.9
2013-Aug-17 18:04N 22°25' E 127°03'1 1.3 29.9
2013-Aug-17 17:15N 22°25' E 127°04'0 1.1 29.9
2013-Aug-17 17:12N 22°25' E 127°04'0 1.1 29.9
2013-Aug-17 17:09N 22°25' E 127°04'2 0.6 29.9
2013-Aug-17 14:00N 22°24' E 127°06'0 0.0 29.9
2013-Aug-17 13:08N 22°24' E 127°06'0 0.0 29.9
2013-Aug-17 13:07N 22°24' E 127°06'0 3.1 29.9
2013-Aug-17 12:58N 22°23' E 127°06'0 0.0 29.9
2013-Aug-17 12:28N 22°23' E 127°06'0 3.1 29.9
2013-Aug-17 12:24N 22°23' E 127°06'0 0.0
2013-Aug-17 12:23N 22°23' E 127°06'1 8.2 29.9
2013-Aug-17 12:18N 22°23' E 127°07'0 0.3 29.9
2013-Aug-17 11:25N 22°23' E 127°06'0 0.2 29.9
2013-Aug-17 10:44N 22°23' E 127°07'1 1.2 30.0
2013-Aug-17 10:11N 22°24' E 127°06'1 8.2 30.0
2013-Aug-17 10:04N 22°24' E 127°07'0 0.0 30.0
2013-Aug-17 08:37N 22°24' E 127°07'1 6.7
2013-Aug-17 08:30N 22°24' E 127°08'0 0.0 30.2
2013-Aug-17 08:26N 22°24' E 127°08'0 0.0 30.2
2013-Aug-17 07:16N 22°24' E 127°08'0 1.6 30.2
2013-Aug-17 07:07N 22°24' E 127°08'0 1.7 30.3
2013-Aug-17 06:54N 22°24' E 127°08'1 1.4 30.3
2013-Aug-17 06:21N 22°24' E 127°08'1 0.4 30.3
2013-Aug-17 04:41N 22°24' E 127°07'0 1.2 30.4
2013-Aug-17 04:37N 22°24' E 127°07'220.5 30.4
2013-Aug-17 04:32N 22°24' E 127°05'0 0.0 30.4
2013-Aug-17 02:45N 22°24' E 127°05'0 0.0 30.4
2013-Aug-17 01:56N 22°24' E 127°05'0 2.5 30.2
2013-Aug-17 01:46N 22°23' E 127°05'0 0.0 30.1
2013-Aug-17 01:12N 22°23' E 127°05'010.1 30.0
2013-Aug-17 01:10N 22°23' E 127°05'0 0.0 30.0
2013-Aug-17 01:03N 22°23' E 127°05'1 0.7 29.9
2013-Aug-17 00:14N 22°23' E 127°05'0 9.5 29.8
2013-Aug-17 00:11N 22°22' E 127°04'0 0.6 29.8
2013-Aug-16 23:27N 22°23' E 127°04'1 0.5 29.7
2013-Aug-16 21:45N 22°22' E 127°05'1 0.9 29.7
2013-Aug-16 20:06N 22°21' E 127°04'0 0.8 29.7
2013-Aug-16 19:56N 22°21' E 127°04'0 2.2 29.7
2013-Aug-16 19:46N 22°21' E 127°04'0 0.6 29.7
2013-Aug-16 19:00N 22°20' E 127°04'0 0.0
2013-Aug-16 18:59N 22°20' E 127°04'0 0.3 29.7
2013-Aug-16 18:14N 22°20' E 127°04'1 0.8 29.7
2013-Aug-16 17:21N 22°19' E 127°04'1 0.8 29.8
2013-Aug-16 15:38N 22°19' E 127°06'0 0.0 29.8
2013-Aug-16 13:27N 22°19' E 127°06'0 0.7 29.9
2013-Aug-16 13:16N 22°19' E 127°06'0 0.2
2013-Aug-16 12:40N 22°19' E 127°06'0 2.4 29.9
2013-Aug-16 12:31N 22°19' E 127°06'0 9.6 29.9
2013-Aug-16 12:29N 22°18' E 127°06'0 0.0 29.9
2013-Aug-16 11:48N 22°18' E 127°06'0 5.3 30.0
2013-Aug-16 11:46N 22°18' E 127°06'1 0.7 30.0
2013-Aug-16 10:55N 22°18' E 127°06'1 3.5 30.3
2013-Aug-16 10:34N 22°20' E 127°06'0 0.0 30.4
2013-Aug-16 09:04N 22°20' E 127°06'0 3.4 30.7
2013-Aug-16 08:59N 22°19' E 127°06'0 0.1 30.7
2013-Aug-16 07:26N 22°20' E 127°06'0 1.7
2013-Aug-16 07:22N 22°20' E 127°06'0 0.5 30.9
2013-Aug-16 06:32N 22°20' E 127°06'0 1.8
2013-Aug-16 06:30N 22°20' E 127°06'0 0.0 30.9
2013-Aug-16 05:47N 22°20' E 127°06'1 3.5 30.9
2013-Aug-16 05:37N 22°20' E 127°06'0 0.0 30.9
2013-Aug-16 04:53N 22°20' E 127°06'0 1.0 30.6
2013-Aug-16 04:48N 22°20' E 127°06'110.8 30.6
2013-Aug-16 04:43N 22°21' E 127°05'1 0.4 30.6
2013-Aug-16 03:07N 22°21' E 127°04'0 0.5 30.4
2013-Aug-16 02:09N 22°21' E 127°04'0 0.7 30.1
2013-Aug-16 01:32N 22°21' E 127°04'0 3.9 29.9
2013-Aug-16 01:25N 22°21' E 127°04'0 0.0 29.9
2013-Aug-16 01:15N 22°21' E 127°04'0 0.0 29.9
2013-Aug-16 00:38N 22°21' E 127°04'0 0.0 29.7
2013-Aug-16 00:33N 22°21' E 127°04'2 1.9 29.7
2013-Aug-15 23:36N 22°19' E 127°02'0 0.0 29.7
2013-Aug-15 22:17N 22°19' E 127°02'1 0.8 29.7
2013-Aug-15 20:39N 22°18' E 127°02'0 0.7 29.7
2013-Aug-15 20:09N 22°18' E 127°02'017.2 29.7
2013-Aug-15 20:08N 22°18' E 127°02'1 1.3 29.7
2013-Aug-15 19:09N 22°17' E 127°03'0 0.0 29.7
2013-Aug-15 18:30N 22°17' E 127°03'0 1.7 29.8
2013-Aug-15 18:28N 22°17' E 127°03'1 1.0 29.8
2013-Aug-15 17:34N 22°16' E 127°03'122.6 29.8
2013-Aug-15 17:32N 22°15' E 127°04'1 0.6 29.8
2013-Aug-15 15:45N 22°15' E 127°05'0 0.0 29.8
2013-Aug-15 13:49N 22°15' E 127°05'1 5.6 29.8
2013-Aug-15 13:42N 22°16' E 127°05'0 0.7 29.8
2013-Aug-15 13:03N 22°16' E 127°06'0 0.0 29.8
2013-Aug-15 12:42N 22°16' E 127°06'0 0.0 29.8
2013-Aug-15 12:09N 22°16' E 127°06'1 1.0 29.8
2013-Aug-15 11:16N 22°17' E 127°06'0 0.0
2013-Aug-15 11:07N 22°17' E 127°06'0 0.0 29.8
2013-Aug-15 09:30N 22°17' E 127°06'0 0.3 29.9
2013-Aug-15 07:48N 22°17' E 127°06'0 3.8
2013-Aug-15 07:44N 22°17' E 127°06'1 5.1 30.0
2013-Aug-15 07:36N 22°18' E 127°06'0 0.0 30.0
2013-Aug-15 06:39N 22°18' E 127°06'0 0.1 30.0
2013-Aug-15 05:55N 22°18' E 127°06'1 0.8 30.0
2013-Aug-15 05:03N 22°18' E 127°06'0 0.0 30.2
2013-Aug-15 04:54N 22°18' E 127°06'0 0.0 30.2
2013-Aug-15 04:53N 22°18' E 127°06'0 0.0 30.4
2013-Aug-15 03:18N 22°18' E 127°06'1 0.5 29.9
2013-Aug-15 01:52N 22°18' E 127°05'0 0.7 29.8
2013-Aug-15 01:29N 22°18' E 127°05'1 0.5
2013-Aug-15 00:06N 22°18' E 127°04'0 0.0 29.7
2013-Aug-14 23:51N 22°18' E 127°04'0 0.3
2013-Aug-14 22:46N 22°18' E 127°04'1 0.9 29.7
2013-Aug-14 22:10N 22°18' E 127°04'0 0.0
2013-Aug-14 21:11N 22°18' E 127°04'1 0.9 29.7
2013-Aug-14 20:31N 22°17' E 127°03'0 1.7 29.7
2013-Aug-14 20:14N 22°17' E 127°03'0 0.0 29.7
2013-Aug-14 19:28N 22°17' E 127°03'0 0.0
2013-Aug-14 18:52N 22°17' E 127°03'0 1.7
2013-Aug-14 18:35N 22°16' E 127°03'0 0.1 29.7
2013-Aug-14 17:44N 22°16' E 127°03'0 2.3
2013-Aug-14 17:38N 22°16' E 127°03'1 0.9 29.7
2013-Aug-14 15:59N 22°15' E 127°03'   29.7

Dump ship's entire track history

sailing weather and tide predictions

Buoy 52609